Time;durP1;ratioP1;P1;durP2;ratioP2;P2;SDS_P1;SDS_P2;PMS_P1;PMS_P2;Temp;Humidity;BMP_temperature;BMP_pressure;BME280_temperature;BME280_humidity;BME280_pressure;Samples;Min_cycle;Max_cycle;Signal;HPM_P1;HPM_P2
2022/06/04 00:01:02;;;;;;;12.83;12.43;;;22.40;63.70;;;;;;5070401;28;20534;-64
2022/06/04 00:03:30;;;;;;;13.57;13.17;;;22.40;63.70;;;;;;5071020;28;20546;-64
2022/06/04 00:05:58;;;;;;;12.33;12.03;;;22.40;63.60;;;;;;5073414;28;20451;-64
2022/06/04 00:08:26;;;;;;;13.33;12.77;;;22.40;64.50;;;;;;5074589;28;20546;-64
2022/06/04 00:16:25;;;;;;;12.90;12.17;;;22.40;63.70;;;;;;5055079;28;20424;-64
2022/06/04 00:18:54;;;;;;;12.17;11.67;;;22.30;63.60;;;;;;5060302;28;20542;-64
2022/06/04 00:21:22;;;;;;;11.70;11.30;;;22.30;63.80;;;;;;5074555;28;20538;-64
2022/06/04 00:23:50;;;;;;;13.33;12.93;;;22.30;63.70;;;;;;5072682;28;20546;-64
2022/06/04 00:26:18;;;;;;;12.70;12.30;;;22.30;63.90;;;;;;5054465;28;20970;-64
2022/06/04 00:28:46;;;;;;;11.90;11.50;;;22.30;63.80;;;;;;5054264;28;20440;-64
2022/06/04 00:31:13;;;;;;;11.60;11.20;;;22.30;63.90;;;;;;5054439;28;20869;-64
2022/06/04 00:33:40;;;;;;;12.07;11.67;;;22.30;64.00;;;;;;5067568;28;20481;-64
2022/06/04 00:36:08;;;;;;;12.53;12.13;;;22.30;63.90;;;;;;5074223;28;20454;-64
2022/06/04 00:38:35;;;;;;;11.30;11.00;;;22.20;64.00;;;;;;5074086;28;20447;-64
2022/06/04 00:41:20;;;;;;;12.83;12.50;;;22.20;64.00;;;;;;5074162;28;20533;-64
2022/06/04 00:44:13;;;;;;;11.70;11.30;;;22.20;64.10;;;;;;5059300;28;20543;-64
2022/06/04 00:47:01;;;;;;;11.77;11.30;;;22.20;64.10;;;;;;5051991;28;20452;-64
2022/06/04 00:49:28;;;;;;;11.50;11.20;;;22.20;64.20;;;;;;5054021;28;20525;-64
2022/06/04 00:51:56;;;;;;;11.87;11.57;;;22.20;64.30;;;;;;5054020;28;20446;-64
2022/06/04 00:54:23;;;;;;;10.87;10.57;;;22.20;64.30;;;;;;5072678;28;20566;-64
2022/06/04 00:57:06;;;;;;;10.87;10.57;;;22.20;64.50;;;;;;5073768;28;20888;-64
2022/06/04 00:59:41;;;;;;;10.53;10.23;;;22.20;64.50;;;;;;5073858;28;20535;-64
2022/06/04 01:02:20;;;;;;;10.00;9.70;;;22.20;64.50;;;;;;5073357;28;20447;-64
2022/06/04 01:04:55;;;;;;;10.87;10.47;;;22.20;64.60;;;;;;5057653;28;20546;-64
2022/06/04 01:07:47;;;;;;;10.20;9.80;;;22.10;64.50;;;;;;5073853;28;20443;-64
2022/06/04 01:10:40;;;;;;;10.77;10.27;;;22.20;64.80;;;;;;5073880;28;20804;-64
2022/06/04 01:13:31;;;;;;;12.60;12.10;;;22.10;64.70;;;;;;5061986;28;20487;-64
2022/06/04 01:16:06;;;;;;;11.27;10.93;;;22.10;64.70;;;;;;5053185;28;20535;-64
2022/06/04 01:18:41;;;;;;;10.97;10.47;;;22.10;64.90;;;;;;5053294;28;20484;-64
2022/06/04 01:21:19;;;;;;;10.53;10.23;;;22.10;65.70;;;;;;5053471;28;20966;-64
2022/06/04 01:24:32;;;;;;;10.87;10.57;;;22.10;64.80;;;;;;5066205;28;20550;-64
2022/06/04 01:27:11;;;;;;;10.30;10.00;;;22.10;64.80;;;;;;5052115;28;20551;-64
2022/06/04 01:29:44;;;;;;;10.13;9.83;;;22.10;64.90;;;;;;5053642;28;20534;-64
2022/06/04 01:32:18;;;;;;;10.50;10.20;;;22.10;65.00;;;;;;5054478;28;20882;-64
2022/06/04 01:34:51;;;;;;;10.90;10.60;;;22.10;64.90;;;;;;5053286;28;20468;-64
2022/06/04 01:37:23;;;;;;;10.53;10.23;;;22.10;64.90;;;;;;5053011;28;20531;-64
2022/06/04 01:42:44;;;;;;;10.30;10.00;;;22.10;65.20;;;;;;5066229;28;20484;-64
2022/06/04 01:45:13;;;;;;;10.67;10.27;;;22.00;65.00;;;;;;5073178;28;20496;-63
2022/06/04 01:47:43;;;;;;;9.90;9.60;;;22.00;65.10;;;;;;5072691;28;20479;-64
2022/06/04 01:50:13;;;;;;;11.30;10.90;;;22.10;65.20;;;;;;5072833;28;20906;-64
2022/06/04 01:52:42;;;;;;;10.70;10.20;;;22.10;65.10;;;;;;5058838;28;20535;-64
2022/06/04 01:55:14;;;;;;;9.83;9.53;;;22.00;65.10;;;;;;5052765;28;20444;-64
2022/06/04 01:57:46;;;;;;;10.70;10.30;;;22.00;65.00;;;;;;5052529;28;20541;-64
2022/06/04 02:00:17;;;;;;;11.10;10.70;;;22.00;65.00;;;;;;5052828;28;20566;-64
2022/06/04 02:02:48;;;;;;;10.80;10.30;;;22.00;65.10;;;;;;5065995;28;20541;-64
2022/06/04 02:05:21;;;;;;;10.80;10.40;;;22.00;65.20;;;;;;5072493;28;20447;-64
2022/06/04 02:07:52;;;;;;;11.00;10.27;;;22.00;65.20;;;;;;5070547;28;22376;-64
2022/06/04 02:10:23;;;;;;;11.00;10.70;;;22.00;65.30;;;;;;5072351;28;20466;-64
2022/06/04 02:12:56;;;;;;;11.30;10.90;;;22.00;65.40;;;;;;5052933;28;20495;-65
2022/06/04 02:15:28;;;;;;;10.17;9.80;;;21.90;65.20;;;;;;5052429;28;20519;-64
2022/06/04 02:17:57;;;;;;;10.33;9.90;;;21.90;65.00;;;;;;5053902;28;20845;-64
2022/06/04 02:20:25;;;;;;;10.57;10.27;;;21.90;65.00;;;;;;5072386;28;20448;-64
2022/06/04 02:22:52;;;;;;;10.20;9.80;;;21.90;65.00;;;;;;5072093;28;21014;-64
2022/06/04 02:25:21;;;;;;;11.03;10.63;;;22.00;65.00;;;;;;5072098;28;20882;-64
2022/06/04 02:27:51;;;;;;;10.10;9.80;;;22.00;65.10;;;;;;5070241;28;20448;-64
2022/06/04 02:30:19;;;;;;;10.97;10.47;;;21.90;65.10;;;;;;5051880;28;20527;-64
2022/06/04 02:33:01;;;;;;;11.40;11.10;;;21.90;65.20;;;;;;5051806;28;20539;-64
2022/06/04 02:35:33;;;;;;;10.30;10.00;;;21.90;65.30;;;;;;5052073;28;20530;-64
2022/06/04 02:38:06;;;;;;;10.17;9.87;;;21.90;65.30;;;;;;5053839;28;20534;-64
2022/06/04 02:40:40;;;;;;;9.97;9.67;;;21.90;65.30;;;;;;5071947;28;20534;-64
2022/06/04 02:43:18;;;;;;;11.50;10.60;;;21.90;65.40;;;;;;5071909;28;20455;-64
2022/06/04 02:45:52;;;;;;;10.87;10.57;;;21.90;66.30;;;;;;5071878;28;20482;-64
2022/06/04 02:48:25;;;;;;;10.50;10.10;;;21.90;65.70;;;;;;5066580;28;20452;-64
2022/06/04 02:50:57;;;;;;;9.70;9.30;;;21.80;65.70;;;;;;5051883;28;20483;-64
2022/06/04 02:53:26;;;;;;;10.57;10.17;;;21.90;65.80;;;;;;5051546;28;21002;-64
2022/06/04 02:55:56;;;;;;;10.90;10.50;;;21.90;65.70;;;;;;5051688;28;21014;-64
2022/06/04 02:58:26;;;;;;;10.10;9.80;;;21.90;65.70;;;;;;5056388;28;20435;-64
2022/06/04 03:00:56;;;;;;;11.13;10.80;;;21.90;65.80;;;;;;5071724;28;20882;-64
2022/06/04 03:03:23;;;;;;;11.10;10.60;;;21.90;65.90;;;;;;5071634;28;20807;-64
2022/06/04 03:05:52;;;;;;;11.30;11.00;;;21.90;66.00;;;;;;5071652;28;20526;-64
2022/06/04 03:08:19;;;;;;;10.90;10.60;;;21.80;66.00;;;;;;5066717;28;20444;-64
2022/06/04 03:10:46;;;;;;;11.23;10.83;;;21.80;66.20;;;;;;5055710;28;20443;-64
2022/06/04 03:13:12;;;;;;;11.07;10.67;;;21.80;66.20;;;;;;5071378;28;20536;-64
2022/06/04 03:15:41;;;;;;;11.80;11.30;;;21.80;66.30;;;;;;5071496;28;20883;-64
2022/06/04 03:18:08;;;;;;;11.17;10.67;;;21.80;66.40;;;;;;5068562;28;20443;-64
2022/06/04 03:20:35;;;;;;;11.90;11.50;;;21.70;66.50;;;;;;5051496;28;20475;-64
2022/06/04 03:23:02;;;;;;;11.50;11.00;;;21.70;67.40;;;;;;5051344;28;21018;-64
2022/06/04 03:25:30;;;;;;;11.20;10.70;;;21.70;66.70;;;;;;5051329;28;21022;-63
2022/06/04 03:27:57;;;;;;;12.50;12.00;;;21.70;66.80;;;;;;5051801;28;20456;-63
2022/06/04 03:30:25;;;;;;;11.20;10.90;;;21.70;66.80;;;;;;5071324;28;20868;-64
2022/06/04 03:32:53;;;;;;;10.97;10.57;;;21.70;66.90;;;;;;5071299;28;20969;-64
2022/06/04 03:35:20;;;;;;;11.00;10.70;;;21.70;66.90;;;;;;5071233;28;20480;-64
2022/06/04 03:37:49;;;;;;;10.97;10.43;;;21.70;67.00;;;;;;5070958;28;20493;-64
2022/06/04 03:40:16;;;;;;;11.50;11.10;;;21.60;67.10;;;;;;5072578;28;20486;-63
2022/06/04 03:42:43;;;;;;;11.10;10.80;;;21.60;67.20;;;;;;5075174;28;20454;-64
2022/06/04 03:45:11;;;;;;;11.83;11.43;;;21.70;67.40;;;;;;5075220;28;20526;-64
2022/06/04 03:47:38;;;;;;;11.83;11.43;;;21.60;67.30;;;;;;5063213;28;20531;-64
2022/06/04 03:50:09;;;;;;;11.50;11.10;;;21.60;67.20;;;;;;5055151;28;20813;-64
2022/06/04 03:52:36;;;;;;;11.30;10.90;;;21.60;67.40;;;;;;5055171;28;20534;-63
2022/06/04 03:55:04;;;;;;;11.50;11.03;;;21.60;67.40;;;;;;5055006;28;20571;-64
2022/06/04 03:57:39;;;;;;;11.23;10.83;;;21.60;67.50;;;;;;5064725;28;20447;-64
2022/06/04 04:00:12;;;;;;;11.93;11.53;;;21.60;67.60;;;;;;5075287;28;20454;-64
2022/06/04 04:02:39;;;;;;;11.33;10.93;;;21.60;67.60;;;;;;5075036;28;20525;-64
2022/06/04 04:05:10;;;;;;;11.97;11.60;;;21.60;67.60;;;;;;5074812;28;20526;-64
2022/06/04 04:07:37;;;;;;;11.50;11.10;;;21.60;67.60;;;;;;5063527;28;20444;-63
2022/06/04 04:10:05;;;;;;;11.93;11.53;;;21.60;67.70;;;;;;5060535;28;20449;-63
2022/06/04 04:12:32;;;;;;;12.10;11.60;;;21.60;67.70;;;;;;5074562;28;20469;-63
2022/06/04 04:14:58;;;;;;;11.93;11.53;;;21.60;67.70;;;;;;5059461;28;20490;-64
2022/06/04 04:17:25;;;;;;;11.13;10.83;;;21.60;67.70;;;;;;5054819;28;20447;-64
2022/06/04 04:19:52;;;;;;;11.63;11.23;;;21.60;67.70;;;;;;5054585;28;20454;-65
2022/06/04 04:22:21;;;;;;;11.80;11.40;;;21.60;67.90;;;;;;5054504;28;20531;-64
2022/06/04 04:24:48;;;;;;;13.20;12.60;;;21.60;67.80;;;;;;5055634;28;20531;-64
2022/06/04 04:27:15;;;;;;;13.03;12.03;;;21.60;67.90;;;;;;5054266;28;20491;-65
2022/06/04 04:29:42;;;;;;;12.53;12.13;;;21.60;68.10;;;;;;5054287;28;20440;-64
2022/06/04 04:32:09;;;;;;;11.77;11.37;;;21.60;67.90;;;;;;5054498;28;20531;-63
2022/06/04 04:34:36;;;;;;;12.70;12.20;;;21.70;67.90;;;;;;5064933;28;20483;-66
2022/06/04 04:37:04;;;;;;;11.90;11.60;;;21.60;68.00;;;;;;5074065;28;20542;-66
2022/06/04 04:39:32;;;;;;;11.97;11.47;;;21.70;68.10;;;;;;5074228;28;20486;-64
2022/06/04 04:41:59;;;;;;;12.10;11.73;;;21.70;68.00;;;;;;5074196;28;20559;-66
2022/06/04 04:44:26;;;;;;;12.07;11.70;;;21.70;67.90;;;;;;5064907;28;20999;-66
2022/06/04 04:46:53;;;;;;;11.90;11.50;;;21.70;67.90;;;;;;5053980;28;20534;-66
2022/06/04 04:49:21;;;;;;;12.40;12.00;;;21.60;67.60;;;;;;5054072;28;20536;-66
2022/06/04 04:51:48;;;;;;;12.40;12.00;;;21.60;67.60;;;;;;5053006;28;21002;-66
2022/06/04 04:54:15;;;;;;;12.40;11.90;;;21.60;67.60;;;;;;5060887;28;20483;-66
2022/06/04 04:56:44;;;;;;;12.03;11.63;;;21.70;67.70;;;;;;5073959;28;20538;-66
2022/06/04 04:59:11;;;;;;;12.27;11.67;;;21.70;67.80;;;;;;5073796;28;20450;-66
2022/06/04 05:01:38;;;;;;;12.87;12.37;;;21.70;67.80;;;;;;5073887;28;20451;-66
2022/06/04 05:04:05;;;;;;;12.20;11.90;;;21.70;67.80;;;;;;5068249;28;20725;-64
2022/06/04 05:06:33;;;;;;;12.83;12.23;;;21.70;67.90;;;;;;5053805;28;20527;-64
2022/06/04 05:09:00;;;;;;;12.60;12.20;;;21.70;67.80;;;;;;5053494;28;20875;-65
2022/06/04 05:11:28;;;;;;;13.03;12.63;;;21.70;67.80;;;;;;5053619;28;21003;-67
2022/06/04 05:13:57;;;;;;;13.17;12.63;;;21.70;67.80;;;;;;5056916;28;20566;-67
2022/06/04 05:16:28;;;;;;;13.37;12.87;;;21.70;67.90;;;;;;5073494;28;20530;-67
2022/06/04 05:18:55;;;;;;;12.90;12.50;;;21.70;67.90;;;;;;5073328;28;20550;-61
2022/06/04 05:21:24;;;;;;;12.73;12.37;;;21.70;67.80;;;;;;5073515;28;20533;-61
2022/06/04 05:23:54;;;;;;;13.90;13.40;;;21.70;68.00;;;;;;5056237;28;20555;-64
2022/06/04 05:26:23;;;;;;;12.80;12.40;;;21.70;69.00;;;;;;5053391;28;20453;-65
2022/06/04 05:28:50;;;;;;;13.00;12.60;;;21.70;68.30;;;;;;5053189;28;20448;-63
2022/06/04 05:31:20;;;;;;;13.17;12.70;;;21.70;68.30;;;;;;5053484;28;20531;-64
2022/06/04 05:33:47;;;;;;;13.30;12.80;;;21.70;68.30;;;;;;5068663;28;20554;-63
2022/06/04 05:36:14;;;;;;;13.73;13.23;;;21.70;69.10;;;;;;5073204;28;20818;-67
2022/06/04 05:38:42;;;;;;;13.20;12.80;;;21.70;68.50;;;;;;5072821;28;20478;-65
2022/06/04 05:41:11;;;;;;;12.50;12.10;;;21.70;68.60;;;;;;5073216;28;20450;-66
2022/06/04 05:43:39;;;;;;;13.30;12.80;;;21.70;68.60;;;;;;5058300;28;20547;-66
2022/06/04 05:46:08;;;;;;;13.40;13.00;;;21.70;68.60;;;;;;5053309;28;20447;-64
2022/06/04 05:48:39;;;;;;;12.90;12.50;;;21.70;68.70;;;;;;5052962;28;20884;-66
2022/06/04 05:51:07;;;;;;;13.30;12.90;;;21.70;68.70;;;;;;5053076;28;20531;-67
2022/06/04 05:53:33;;;;;;;14.50;13.90;;;21.70;68.80;;;;;;5066224;28;20515;-67
2022/06/04 05:56:00;;;;;;;13.97;13.53;;;21.70;68.80;;;;;;5072835;28;20478;-68
2022/06/04 05:58:27;;;;;;;13.97;13.57;;;21.70;69.00;;;;;;5072767;28;20534;-67
2022/06/04 06:00:59;;;;;;;13.60;13.20;;;21.70;68.90;;;;;;5070771;28;20534;-66
2022/06/04 06:03:26;;;;;;;14.47;13.97;;;21.70;69.00;;;;;;5052785;28;20470;-67
2022/06/04 06:05:55;;;;;;;14.70;14.10;;;21.70;68.90;;;;;;5052886;28;20879;-66
2022/06/04 06:08:22;;;;;;;13.63;13.10;;;21.70;69.00;;;;;;5052683;28;20491;-66
2022/06/04 06:10:49;;;;;;;13.67;13.23;;;21.80;69.20;;;;;;5056275;28;20453;-67
2022/06/04 06:13:15;;;;;;;14.30;13.80;;;21.80;69.20;;;;;;5070576;28;20550;-66
2022/06/04 06:15:43;;;;;;;13.30;12.90;;;21.70;69.10;;;;;;5056044;28;20566;-65
2022/06/04 06:18:09;;;;;;;13.60;13.17;;;21.80;69.30;;;;;;5059361;28;20500;-66
2022/06/04 06:20:37;;;;;;;14.30;13.70;;;21.80;69.40;;;;;;5072391;28;20527;-65
2022/06/04 06:23:05;;;;;;;14.20;13.70;;;21.80;70.00;;;;;;5072119;28;20546;-63
2022/06/04 06:25:32;;;;;;;14.33;13.73;;;21.80;69.50;;;;;;5072314;28;20446;-66
2022/06/04 06:27:58;;;;;;;13.63;13.23;;;21.80;69.70;;;;;;5054291;28;20453;-66
2022/06/04 06:30:25;;;;;;;14.60;14.10;;;21.80;69.80;;;;;;5052185;28;20871;-66
2022/06/04 06:32:52;;;;;;;15.47;14.43;;;21.80;70.00;;;;;;5051920;28;20482;-66
2022/06/04 06:35:19;;;;;;;17.03;15.83;;;21.80;70.70;;;;;;5052050;28;20484;-66
2022/06/04 06:37:47;;;;;;;16.80;15.80;;;21.80;75.50;;;;;;5053262;28;20452;-63
2022/06/04 06:40:15;;;;;;;15.40;14.63;;;21.80;82.10;;;;;;5062823;28;20447;-64
2022/06/04 06:42:42;;;;;;;14.90;14.30;;;21.80;81.30;;;;;;5071905;28;20458;-64
2022/06/04 06:45:10;;;;;;;16.40;15.60;;;21.80;80.70;;;;;;5072035;28;20563;-64
2022/06/04 06:47:37;;;;;;;15.03;14.20;;;21.90;79.70;;;;;;5057492;28;20520;-63
2022/06/04 06:50:05;;;;;;;15.03;14.33;;;21.80;79.10;;;;;;5052137;28;20448;-63
2022/06/04 06:52:32;;;;;;;15.67;15.07;;;21.80;78.40;;;;;;5051817;28;20539;-64
2022/06/04 06:54:59;;;;;;;15.13;14.43;;;21.80;79.20;;;;;;5051639;28;20563;-63
2022/06/04 06:57:27;;;;;;;14.83;14.10;;;21.80;78.40;;;;;;5063615;28;20477;-64
2022/06/04 06:59:55;;;;;;;15.10;14.50;;;21.80;80.30;;;;;;5071679;28;20538;-64
2022/06/04 07:02:21;;;;;;;15.23;14.63;;;21.80;81.20;;;;;;5071967;28;20474;-63
2022/06/04 07:04:52;;;;;;;15.27;13.93;;;21.90;82.60;;;;;;5071617;28;20491;-63
2022/06/04 07:07:19;;;;;;;13.97;13.43;;;21.90;85.90;;;;;;5070752;28;20447;-65
2022/06/04 07:09:46;;;;;;;15.60;14.93;;;21.90;90.10;;;;;;5071569;28;20538;-65
2022/06/04 07:12:13;;;;;;;15.43;14.70;;;21.90;88.00;;;;;;5071601;28;20449;-65
2022/06/04 07:14:41;;;;;;;15.00;14.30;;;21.90;86.00;;;;;;5070798;28;20514;-66
2022/06/04 07:17:08;;;;;;;15.30;14.70;;;21.90;83.90;;;;;;5062056;28;20891;-65
2022/06/04 07:19:36;;;;;;;14.90;14.23;;;21.90;81.90;;;;;;5051676;28;20535;-65
2022/06/04 07:22:03;;;;;;;14.50;13.90;;;21.90;80.90;;;;;;5051488;28;20868;-65
2022/06/04 07:24:30;;;;;;;15.60;15.10;;;21.80;79.50;;;;;;5051831;28;20551;-65
2022/06/04 07:26:58;;;;;;;15.40;14.80;;;21.80;78.90;;;;;;5051502;28;20531;-65
2022/06/04 07:29:26;;;;;;;14.53;14.03;;;21.90;78.90;;;;;;5051388;28;20955;-66
2022/06/04 07:31:55;;;;;;;14.80;14.20;;;21.90;78.80;;;;;;5051436;28;20501;-65
2022/06/04 07:34:22;;;;;;;14.70;14.10;;;21.90;78.70;;;;;;5051153;28;20476;-65
2022/06/04 07:36:49;;;;;;;14.20;13.80;;;21.90;78.60;;;;;;5051224;28;21011;-66
2022/06/04 07:39:18;;;;;;;15.40;14.90;;;21.90;78.40;;;;;;5051321;28;20452;-65
2022/06/04 07:41:47;;;;;;;14.47;13.97;;;21.90;78.20;;;;;;5051337;28;20491;-65
2022/06/04 07:44:16;;;;;;;14.63;14.20;;;21.90;78.10;;;;;;5051185;28;20874;-65
2022/06/04 07:46:44;;;;;;;14.10;13.70;;;21.90;78.40;;;;;;5051168;28;20870;-65
2022/06/04 07:49:13;;;;;;;14.60;14.10;;;21.90;78.10;;;;;;5051333;28;20551;-65
2022/06/04 07:51:42;;;;;;;14.03;13.53;;;21.90;77.70;;;;;;5051178;28;20490;-65
2022/06/04 07:54:10;;;;;;;14.63;14.10;;;21.90;77.80;;;;;;5051293;28;20546;-65
2022/06/04 07:56:38;;;;;;;14.70;14.20;;;21.90;78.60;;;;;;5068652;28;20566;-65
2022/06/04 07:59:07;;;;;;;14.30;13.80;;;21.90;78.00;;;;;;5071200;28;20537;-65
2022/06/04 08:01:36;;;;;;;15.70;15.20;;;21.90;78.40;;;;;;5071304;28;20443;-65
2022/06/04 08:04:03;;;;;;;13.93;13.43;;;21.90;78.50;;;;;;5071017;28;20916;-65
2022/06/04 08:06:32;;;;;;;15.80;14.80;;;22.00;78.40;;;;;;5053857;28;20444;-65
2022/06/04 08:09:00;;;;;;;14.90;14.30;;;21.90;78.80;;;;;;5050824;28;20535;-65
2022/06/04 08:11:35;;;;;;;15.13;14.63;;;21.90;77.70;;;;;;5050981;28;20534;-65
2022/06/04 08:14:07;;;;;;;14.37;13.87;;;21.90;77.90;;;;;;5069395;28;20470;-66
2022/06/04 08:16:34;;;;;;;15.60;15.00;;;21.90;78.70;;;;;;5071000;28;20536;-65
2022/06/04 08:19:01;;;;;;;14.50;14.00;;;22.00;78.70;;;;;;5070981;28;21017;-65
2022/06/04 08:21:28;;;;;;;15.20;14.60;;;22.00;80.10;;;;;;5059505;28;20454;-67
2022/06/04 08:23:56;;;;;;;14.57;13.97;;;21.90;80.20;;;;;;5065816;28;20467;-69
2022/06/04 08:26:23;;;;;;;15.60;15.10;;;21.90;80.40;;;;;;5072724;28;20526;-68
2022/06/04 08:28:50;;;;;;;14.30;13.80;;;22.00;80.00;;;;;;5074252;28;20526;-65
2022/06/04 08:31:18;;;;;;;15.27;14.77;;;21.90;80.20;;;;;;5071202;28;20440;-63
2022/06/04 08:33:45;;;;;;;15.40;14.80;;;21.90;80.70;;;;;;5054280;28;20567;-64
2022/06/04 08:36:14;;;;;;;14.80;14.20;;;21.90;80.70;;;;;;5054357;28;20480;-63
2022/06/04 08:38:41;;;;;;;14.80;14.30;;;21.90;80.10;;;;;;5054107;28;20483;-64
2022/06/04 08:41:20;;;;;;;15.07;14.57;;;22.00;80.10;;;;;;5061339;28;20812;-63
2022/06/04 08:43:51;;;;;;;14.50;14.00;;;22.00;80.40;;;;;;5074189;28;20494;-64
2022/06/04 08:46:32;;;;;;;15.83;15.30;;;21.90;80.70;;;;;;5074335;28;20969;-64
2022/06/04 08:49:05;;;;;;;15.00;14.47;;;21.90;81.40;;;;;;5073819;28;20451;-64
2022/06/04 08:51:32;;;;;;;15.77;14.97;;;21.90;81.30;;;;;;5063695;28;20539;-63
2022/06/04 08:57:32;;;;;;;15.27;14.60;;;21.90;82.10;;;;;;5053806;28;20555;-64
2022/06/04 08:59:47;;;;;;;15.70;15.10;;;22.00;81.40;;;;;;5053808;28;20489;-63
2022/06/04 09:02:18;;;;;;;14.90;14.40;;;22.00;81.20;;;;;;5069369;28;20443;-64
2022/06/04 09:04:55;;;;;;;15.33;14.83;;;22.00;80.90;;;;;;5074064;28;20470;-63
2022/06/04 09:07:26;;;;;;;15.57;15.07;;;22.00;81.50;;;;;;5073674;28;20972;-63
2022/06/04 09:10:00;;;;;;;14.03;13.47;;;22.00;81.70;;;;;;5073667;28;20448;-63
2022/06/04 09:12:35;;;;;;;14.73;14.23;;;22.00;82.30;;;;;;5056260;28;20448;-66
2022/06/04 09:15:05;;;;;;;14.87;14.17;;;22.10;81.60;;;;;;5053462;28;20552;-63
2022/06/04 09:17:41;;;;;;;14.53;13.93;;;22.10;81.80;;;;;;5053804;28;20542;-63
2022/06/04 09:20:19;;;;;;;15.70;15.20;;;22.10;81.90;;;;;;5053632;28;21006;-66
2022/06/04 09:22:48;;;;;;;14.83;14.20;;;22.10;82.00;;;;;;5070947;28;20522;-67
2022/06/04 09:25:17;;;;;;;15.00;14.50;;;22.10;82.30;;;;;;5073790;28;20467;-65
2022/06/04 09:27:56;;;;;;;15.73;15.03;;;22.20;83.10;;;;;;5073439;28;20439;-67
2022/06/04 09:30:27;;;;;;;15.20;14.70;;;22.20;83.20;;;;;;5073579;28;20475;-66
2022/06/04 09:33:22;;;;;;;14.60;14.10;;;22.20;83.20;;;;;;5056031;28;20556;-66
2022/06/04 09:35:49;;;;;;;15.53;14.90;;;22.20;83.20;;;;;;5053387;28;20519;-67
2022/06/04 09:38:25;;;;;;;15.90;15.23;;;22.20;83.70;;;;;;5052862;28;20447;-65
2022/06/04 09:40:59;;;;;;;15.57;14.97;;;22.20;83.40;;;;;;5053635;28;20535;-67
2022/06/04 09:43:27;;;;;;;16.23;15.63;;;22.30;84.80;;;;;;5053485;28;20455;-66
2022/06/04 09:45:57;;;;;;;15.40;14.80;;;22.30;84.30;;;;;;5053238;28;21035;-63
2022/06/04 09:48:29;;;;;;;15.97;15.27;;;22.30;84.10;;;;;;5052911;28;20455;-64
2022/06/04 09:50:58;;;;;;;15.57;15.07;;;22.30;84.20;;;;;;5053045;28;20444;-64
2022/06/04 09:53:27;;;;;;;15.77;15.17;;;22.30;84.30;;;;;;5052915;28;20567;-63
2022/06/04 09:55:57;;;;;;;15.20;14.50;;;22.30;83.50;;;;;;5052844;28;21262;-63
2022/06/04 09:58:29;;;;;;;15.70;15.10;;;22.30;83.90;;;;;;5052661;28;20797;-63
2022/06/04 10:01:00;;;;;;;14.90;14.40;;;22.30;83.80;;;;;;5052652;28;20454;-64
2022/06/04 10:03:28;;;;;;;15.10;14.50;;;22.30;83.50;;;;;;5052480;28;20903;-64
2022/06/04 10:06:01;;;;;;;15.67;14.97;;;22.30;83.90;;;;;;5052866;28;20535;-64
2022/06/04 10:08:29;;;;;;;15.00;14.50;;;22.30;84.30;;;;;;5052464;28;21010;-65
2022/06/04 10:11:02;;;;;;;16.17;15.47;;;22.30;85.50;;;;;;5052566;28;20445;-65
2022/06/04 10:13:45;;;;;;;16.63;15.30;;;22.30;85.20;;;;;;5052438;28;20464;-64
2022/06/04 10:16:18;;;;;;;14.87;14.37;;;22.40;85.60;;;;;;5052393;28;20480;-64
2022/06/04 10:18:55;;;;;;;15.80;15.20;;;22.40;85.20;;;;;;5052219;28;20451;-65
2022/06/04 10:21:24;;;;;;;17.10;16.30;;;22.30;85.20;;;;;;5055207;28;20446;-64
2022/06/04 10:23:54;;;;;;;16.70;15.80;;;22.30;85.40;;;;;;5063825;28;20466;-64
2022/06/04 10:26:46;;;;;;;13.70;13.27;;;22.30;86.20;;;;;;5070995;28;20436;-65
2022/06/04 10:29:36;;;;;;;14.67;14.07;;;22.40;86.40;;;;;;5049938;28;20500;-65
2022/06/04 10:32:15;;;;;;;14.30;13.50;;;22.50;85.50;;;;;;5067546;28;20551;-66
2022/06/04 10:34:50;;;;;;;12.97;12.53;;;22.50;85.30;;;;;;5072569;28;20561;-65
2022/06/04 10:37:31;;;;;;;14.43;13.80;;;22.40;85.90;;;;;;5071783;28;20855;-65
2022/06/04 10:40:08;;;;;;;13.30;12.70;;;22.40;86.10;;;;;;5052030;28;20882;-65
2022/06/04 10:42:46;;;;;;;12.60;12.20;;;22.40;85.90;;;;;;5062020;28;20538;-65
2022/06/04 10:45:18;;;;;;;13.93;13.40;;;22.50;86.60;;;;;;5052409;28;20444;-64
2022/06/04 10:47:51;;;;;;;13.93;13.30;;;22.50;87.20;;;;;;5058709;28;20803;-64
2022/06/04 10:53:35;;;;;;;13.73;13.27;;;22.50;86.50;;;;;;5070755;28;20443;-66
2022/06/04 10:56:08;;;;;;;14.00;13.40;;;22.60;87.10;;;;;;5053976;28;20476;-65
2022/06/04 10:58:41;;;;;;;14.20;13.60;;;22.60;87.60;;;;;;5056933;28;20455;-65
2022/06/04 11:01:15;;;;;;;12.93;12.43;;;22.60;87.90;;;;;;5071048;28;20447;-66
2022/06/04 11:03:51;;;;;;;16.90;16.07;;;22.60;89.00;;;;;;5056385;28;21038;-66
2022/06/04 11:06:23;;;;;;;16.43;15.73;;;22.70;89.30;;;;;;5067817;28;20524;-64
2022/06/04 11:08:55;;;;;;;15.93;15.33;;;22.60;90.30;;;;;;5051399;28;20940;-66
2022/06/04 11:11:27;;;;;;;16.30;15.60;;;22.60;91.70;;;;;;5055348;28;20876;-65
2022/06/04 11:13:58;;;;;;;16.77;16.00;;;22.50;91.90;;;;;;5066530;28;20470;-66
2022/06/04 11:16:33;;;;;;;15.77;15.03;;;22.50;92.00;;;;;;5060579;28;20471;-65
2022/06/04 11:19:06;;;;;;;15.73;15.13;;;22.60;92.70;;;;;;5057559;28;20837;-66
2022/06/04 11:21:37;;;;;;;16.27;15.50;;;22.60;93.50;;;;;;5052607;28;20448;-68
2022/06/04 11:24:12;;;;;;;15.57;14.90;;;22.60;93.00;;;;;;5057287;28;20542;-66
2022/06/04 11:26:45;;;;;;;16.37;15.60;;;22.70;92.50;;;;;;5063331;28;20444;-65
2022/06/04 11:29:14;;;;;;;16.00;15.37;;;22.70;92.30;;;;;;5052516;28;21042;-65
2022/06/04 11:32:07;;;;;;;15.20;14.60;;;22.70;92.80;;;;;;5061393;28;20534;-64
2022/06/04 11:35:04;;;;;;;21.97;21.00;;;22.80;92.80;;;;;;5064182;28;20555;-66
2022/06/04 11:37:47;;;;;;;20.63;19.93;;;22.80;92.80;;;;;;5060404;28;20475;-67
2022/06/04 11:40:27;;;;;;;22.63;21.63;;;22.80;93.00;;;;;;5052318;28;20452;-65
2022/06/04 11:42:57;;;;;;;22.23;21.43;;;22.80;92.60;;;;;;5067502;28;20829;-65
2022/06/04 11:45:44;;;;;;;21.80;20.80;;;22.80;92.40;;;;;;5051050;28;20966;-66
2022/06/04 11:48:40;;;;;;;22.27;21.30;;;22.90;93.00;;;;;;5049794;28;20453;-66
2022/06/04 11:51:21;;;;;;;21.00;20.00;;;22.90;93.20;;;;;;5050947;28;20536;-64
2022/06/04 11:53:53;;;;;;;20.47;19.67;;;22.90;92.70;;;;;;5050897;28;20554;-64
2022/06/04 11:56:30;;;;;;;22.73;21.60;;;22.90;92.00;;;;;;5050408;28;20936;-62
2022/06/04 11:59:13;;;;;;;20.77;20.07;;;23.00;92.50;;;;;;5051289;28;20990;-63
2022/06/04 12:01:44;;;;;;;21.40;20.70;;;23.00;92.40;;;;;;5053259;28;20456;-63
2022/06/04 12:04:20;;;;;;;21.80;21.00;;;23.10;92.10;;;;;;5054666;28;20550;-63
2022/06/04 12:06:52;;;;;;;21.80;20.90;;;23.10;91.80;;;;;;5054845;28;20523;-65
2022/06/04 12:09:23;;;;;;;18.80;18.10;;;23.10;91.40;;;;;;5053788;28;20451;-64
2022/06/04 12:11:56;;;;;;;21.40;20.60;;;23.10;91.10;;;;;;5054880;28;20197;-63
2022/06/04 12:14:30;;;;;;;21.50;20.70;;;23.20;90.70;;;;;;5054376;28;21075;-61
2022/06/04 12:17:12;;;;;;;21.40;20.60;;;23.20;90.30;;;;;;5054553;28;20900;-65
2022/06/04 12:25:18;;;;;;;22.97;22.17;;;23.30;90.90;;;;;;5054354;28;20826;-62
2022/06/04 12:27:57;;;;;;;22.37;21.47;;;23.30;90.70;;;;;;5054152;28;20531;-64
2022/06/04 12:30:39;;;;;;;20.90;20.10;;;23.30;91.20;;;;;;5070109;28;20814;-64
2022/06/04 12:33:12;;;;;;;20.63;19.93;;;23.30;90.70;;;;;;5054374;28;20923;-64
2022/06/04 12:35:41;;;;;;;20.30;19.40;;;23.30;90.20;;;;;;5054724;28;21006;-65
2022/06/04 12:38:14;;;;;;;20.20;19.40;;;23.20;89.60;;;;;;5054166;28;20574;-64
2022/06/04 12:40:44;;;;;;;21.33;20.33;;;23.20;89.20;;;;;;5054276;28;20444;-65
2022/06/04 12:43:31;;;;;;;21.10;20.10;;;23.20;88.80;;;;;;5054564;28;20468;-64
2022/06/04 12:46:13;;;;;;;20.23;19.53;;;23.20;88.30;;;;;;5054258;28;20539;-64
2022/06/04 12:48:57;;;;;;;21.47;20.67;;;23.20;87.70;;;;;;5054055;28;20475;-65
2022/06/04 12:51:41;;;;;;;20.50;19.80;;;23.20;87.70;;;;;;5054068;28;20454;-65
2022/06/04 12:54:23;;;;;;;19.53;18.90;;;23.30;87.20;;;;;;5053915;28;20554;-65
2022/06/04 12:56:55;;;;;;;19.97;19.27;;;23.30;87.00;;;;;;5053766;28;20576;-65
2022/06/04 12:59:28;;;;;;;20.00;19.30;;;23.30;86.80;;;;;;5053839;28;20476;-64
2022/06/04 13:01:55;;;;;;;21.13;20.33;;;23.30;86.90;;;;;;5054174;28;20531;-65
2022/06/04 13:04:26;;;;;;;19.30;18.70;;;23.30;86.70;;;;;;5053707;28;20489;-65
2022/06/04 13:07:01;;;;;;;21.23;20.50;;;23.30;86.60;;;;;;5052486;28;20947;-64
2022/06/04 13:09:55;;;;;;;19.33;18.73;;;23.30;86.30;;;;;;5062809;28;20452;-65